sensor_id;sensor_type;location;lat;lon;timestamp;pressure;altitude;pressure_sealevel;temperature
64947;BMP280;51469;52.150;4.682;2023-04-25T00:02:24;101360.00;;;12.41
64947;BMP280;51469;52.150;4.682;2023-04-25T00:04:50;101351.22;;;12.32
64947;BMP280;51469;52.150;4.682;2023-04-25T00:07:15;101359.47;;;12.32
64947;BMP280;51469;52.150;4.682;2023-04-25T00:09:41;101354.28;;;12.23
64947;BMP280;51469;52.150;4.682;2023-04-25T00:12:07;101373.53;;;12.23
64947;BMP280;51469;52.150;4.682;2023-04-25T00:14:34;101363.53;;;12.12
64947;BMP280;51469;52.150;4.682;2023-04-25T00:17:01;101358.84;;;12.12
64947;BMP280;51469;52.150;4.682;2023-04-25T00:19:26;101372.22;;;12.14
64947;BMP280;51469;52.150;4.682;2023-04-25T00:21:54;101367.84;;;12.09
64947;BMP280;51469;52.150;4.682;2023-04-25T00:24:19;101374.63;;;12.19
64947;BMP280;51469;52.150;4.682;2023-04-25T00:26:45;101358.84;;;12.12
64947;BMP280;51469;52.150;4.682;2023-04-25T00:29:10;101373.16;;;12.25
64947;BMP280;51469;52.150;4.682;2023-04-25T00:31:36;101375.22;;;12.31
64947;BMP280;51469;52.150;4.682;2023-04-25T00:34:01;101373.44;;;12.49
64947;BMP280;51469;52.150;4.682;2023-04-25T00:36:27;101363.19;;;12.46
64947;BMP280;51469;52.150;4.682;2023-04-25T00:38:53;101374.28;;;12.53
64947;BMP280;51469;52.150;4.682;2023-04-25T00:41:19;101365.91;;;12.43
64947;BMP280;51469;52.150;4.682;2023-04-25T00:43:45;101357.13;;;12.30
64947;BMP280;51469;52.150;4.682;2023-04-25T00:46:10;101379.59;;;12.36
64947;BMP280;51469;52.150;4.682;2023-04-25T00:48:36;101379.59;;;12.36
64947;BMP280;51469;52.150;4.682;2023-04-25T00:51:04;101374.81;;;12.33
64947;BMP280;51469;52.150;4.682;2023-04-25T00:53:30;101385.44;;;12.34
64947;BMP280;51469;52.150;4.682;2023-04-25T00:55:57;101388.25;;;12.38
64947;BMP280;51469;52.150;4.682;2023-04-25T00:58:22;101384.41;;;12.46
64947;BMP280;51469;52.150;4.682;2023-04-25T01:00:50;101381.28;;;12.44
64947;BMP280;51469;52.150;4.682;2023-04-25T01:03:17;101384.09;;;12.51
64947;BMP280;51469;52.150;4.682;2023-04-25T01:05:44;101389.28;;;12.59
64947;BMP280;51469;52.150;4.682;2023-04-25T01:08:10;101385.38;;;12.60
64947;BMP280;51469;52.150;4.682;2023-04-25T01:10:35;101394.06;;;12.59
64947;BMP280;51469;52.150;4.682;2023-04-25T01:13:01;101390.06;;;12.56
64947;BMP280;51469;52.150;4.682;2023-04-25T01:15:27;101398.66;;;12.51
64947;BMP280;51469;52.150;4.682;2023-04-25T01:17:52;101387.53;;;12.41
64947;BMP280;51469;52.150;4.682;2023-04-25T01:20:21;101392.22;;;12.40
64947;BMP280;51469;52.150;4.682;2023-04-25T01:22:47;101375.25;;;12.35
64947;BMP280;51469;52.150;4.682;2023-04-25T01:25:13;101397.69;;;12.37
64947;BMP280;51469;52.150;4.682;2023-04-25T01:27:39;101404.38;;;12.36
64947;BMP280;51469;52.150;4.682;2023-04-25T01:30:05;101384.91;;;12.22
64947;BMP280;51469;52.150;4.682;2023-04-25T01:32:32;101400.66;;;12.25
64947;BMP280;51469;52.150;4.682;2023-04-25T01:35:04;101405.78;;;12.26
64947;BMP280;51469;52.150;4.682;2023-04-25T01:37:37;101404.53;;;12.20
64947;BMP280;51469;52.150;4.682;2023-04-25T01:40:03;101408.41;;;12.16
64947;BMP280;51469;52.150;4.682;2023-04-25T01:42:34;101403.88;;;12.01
64947;BMP280;51469;52.150;4.682;2023-04-25T01:45:00;101419.19;;;12.02
64947;BMP280;51469;52.150;4.682;2023-04-25T01:47:25;101404.91;;;11.93
64947;BMP280;51469;52.150;4.682;2023-04-25T01:49:51;101410.09;;;11.98
64947;BMP280;51469;52.150;4.682;2023-04-25T01:52:16;101407.31;;;11.94
64947;BMP280;51469;52.150;4.682;2023-04-25T01:54:41;101408.41;;;11.90
64947;BMP280;51469;52.150;4.682;2023-04-25T01:57:10;101412.00;;;11.94
64947;BMP280;51469;52.150;4.682;2023-04-25T01:59:36;101413.56;;;11.95
64947;BMP280;51469;52.150;4.682;2023-04-25T02:02:01;101413.25;;;12.00
64947;BMP280;51469;52.150;4.682;2023-04-25T02:04:29;101420.88;;;12.10
64947;BMP280;51469;52.150;4.682;2023-04-25T02:06:55;101418.66;;;12.19
64947;BMP280;51469;52.150;4.682;2023-04-25T02:09:20;101424.25;;;12.26
64947;BMP280;51469;52.150;4.682;2023-04-25T02:11:45;101417.19;;;12.25
64947;BMP280;51469;52.150;4.682;2023-04-25T02:14:11;101417.25;;;12.32
64947;BMP280;51469;52.150;4.682;2023-04-25T02:16:36;101420.09;;;12.39
64947;BMP280;51469;52.150;4.682;2023-04-25T02:19:02;101418.06;;;12.32
64947;BMP280;51469;52.150;4.682;2023-04-25T02:21:27;101426.88;;;12.45
64947;BMP280;51469;52.150;4.682;2023-04-25T02:23:53;101415.44;;;12.43
64947;BMP280;51469;52.150;4.682;2023-04-25T02:26:19;101425.38;;;12.51
64947;BMP280;51469;52.150;4.682;2023-04-25T02:28:44;101416.78;;;12.56
64947;BMP280;51469;52.150;4.682;2023-04-25T02:31:10;101408.16;;;12.57
64947;BMP280;51469;52.150;4.682;2023-04-25T02:33:35;101412.13;;;12.60
64947;BMP280;51469;52.150;4.682;2023-04-25T02:36:00;101411.31;;;12.59
64947;BMP280;51469;52.150;4.682;2023-04-25T02:38:26;101421.56;;;12.59
64947;BMP280;51469;52.150;4.682;2023-04-25T02:40:51;101424.78;;;12.68
64947;BMP280;51469;52.150;4.682;2023-04-25T02:43:16;101417.69;;;12.63
64947;BMP280;51469;52.150;4.682;2023-04-25T02:45:42;101424.06;;;12.71
64947;BMP280;51469;52.150;4.682;2023-04-25T02:48:07;101414.97;;;12.67
64947;BMP280;51469;52.150;4.682;2023-04-25T02:50:32;101409.78;;;12.62
64947;BMP280;51469;52.150;4.682;2023-04-25T02:52:58;101427.13;;;12.66
64947;BMP280;51469;52.150;4.682;2023-04-25T02:55:23;101436.16;;;12.63
64947;BMP280;51469;52.150;4.682;2023-04-25T02:57:48;101440.03;;;12.58
64947;BMP280;51469;52.150;4.682;2023-04-25T03:00:14;101424.59;;;12.50
64947;BMP280;51469;52.150;4.682;2023-04-25T03:02:39;101439.81;;;12.41
64947;BMP280;51469;52.150;4.682;2023-04-25T03:05:05;101425.84;;;12.56
64947;BMP280;51469;52.150;4.682;2023-04-25T03:07:31;101427.13;;;12.66
64947;BMP280;51469;52.150;4.682;2023-04-25T03:09:56;101435.66;;;12.54
64947;BMP280;51469;52.150;4.682;2023-04-25T03:12:21;101438.22;;;12.73
64947;BMP280;51469;52.150;4.682;2023-04-25T03:14:47;101430.41;;;12.75
64947;BMP280;51469;52.150;4.682;2023-04-25T03:17:15;101431.19;;;12.79
64947;BMP280;51469;52.150;4.682;2023-04-25T03:19:41;101439.47;;;12.79
64947;BMP280;51469;52.150;4.682;2023-04-25T03:22:06;101428.78;;;12.74
64947;BMP280;51469;52.150;4.682;2023-04-25T03:24:31;101434.28;;;12.74
64947;BMP280;51469;52.150;4.682;2023-04-25T03:26:57;101437.31;;;12.62
64947;BMP280;51469;52.150;4.682;2023-04-25T03:29:22;101442.00;;;12.58
64947;BMP280;51469;52.150;4.682;2023-04-25T03:31:49;101451.25;;;12.46
64947;BMP280;51469;52.150;4.682;2023-04-25T03:34:15;101453.56;;;12.41
64947;BMP280;51469;52.150;4.682;2023-04-25T03:36:40;101448.66;;;12.27
64947;BMP280;51469;52.150;4.682;2023-04-25T03:39:06;101452.09;;;12.21
64947;BMP280;51469;52.150;4.682;2023-04-25T03:41:31;101451.97;;;12.14
64947;BMP280;51469;52.150;4.682;2023-04-25T03:43:56;101438.00;;;12.00
64947;BMP280;51469;52.150;4.682;2023-04-25T03:46:22;101452.13;;;11.98
64947;BMP280;51469;52.150;4.682;2023-04-25T03:48:47;101460.69;;;11.93
64947;BMP280;51469;52.150;4.682;2023-04-25T03:51:12;101454.75;;;11.88
64947;BMP280;51469;52.150;4.682;2023-04-25T03:53:38;101440.00;;;11.77
64947;BMP280;51469;52.150;4.682;2023-04-25T03:56:03;101456.91;;;11.79
64947;BMP280;51469;52.150;4.682;2023-04-25T03:58:29;101457.25;;;11.74
64947;BMP280;51469;52.150;4.682;2023-04-25T04:00:54;101456.69;;;11.65
64947;BMP280;51469;52.150;4.682;2023-04-25T04:03:19;101465.63;;;11.62
64947;BMP280;51469;52.150;4.682;2023-04-25T04:05:45;101468.28;;;11.55
64947;BMP280;51469;52.150;4.682;2023-04-25T04:08:11;101471.78;;;11.52
64947;BMP280;51469;52.150;4.682;2023-04-25T04:10:37;101469.47;;;11.54
64947;BMP280;51469;52.150;4.682;2023-04-25T04:13:02;101459.91;;;11.48
64947;BMP280;51469;52.150;4.682;2023-04-25T04:15:28;101485.22;;;11.57
64947;BMP280;51469;52.150;4.682;2023-04-25T04:17:53;101496.06;;;11.08
64947;BMP280;51469;52.150;4.682;2023-04-25T04:20:19;101499.00;;;11.38
64947;BMP280;51469;52.150;4.682;2023-04-25T04:22:45;101497.88;;;11.01
64947;BMP280;51469;52.150;4.682;2023-04-25T04:25:10;101490.50;;;11.24
64947;BMP280;51469;52.150;4.682;2023-04-25T04:27:37;101509.59;;;11.58
64947;BMP280;51469;52.150;4.682;2023-04-25T04:30:03;101506.19;;;11.65
64947;BMP280;51469;52.150;4.682;2023-04-25T04:32:28;101506.34;;;11.53
64947;BMP280;51469;52.150;4.682;2023-04-25T04:34:55;101506.03;;;11.58
64947;BMP280;51469;52.150;4.682;2023-04-25T04:37:21;101502.97;;;11.63
64947;BMP280;51469;52.150;4.682;2023-04-25T04:39:46;101493.28;;;11.69
64947;BMP280;51469;52.150;4.682;2023-04-25T04:42:12;101507.69;;;11.85
64947;BMP280;51469;52.150;4.682;2023-04-25T04:44:38;101498.63;;;11.62
64947;BMP280;51469;52.150;4.682;2023-04-25T04:47:04;101504.28;;;11.69
64947;BMP280;51469;52.150;4.682;2023-04-25T04:49:31;101498.78;;;11.69
64947;BMP280;51469;52.150;4.682;2023-04-25T04:51:56;101510.88;;;11.87
64947;BMP280;51469;52.150;4.682;2023-04-25T04:54:22;101506.09;;;11.84
64947;BMP280;51469;52.150;4.682;2023-04-25T04:56:47;101515.63;;;11.90
64947;BMP280;51469;52.150;4.682;2023-04-25T04:59:13;101519.59;;;11.92
64947;BMP280;51469;52.150;4.682;2023-04-25T05:01:38;101514.53;;;11.94
64947;BMP280;51469;52.150;4.682;2023-04-25T05:04:04;101510.13;;;11.90
64947;BMP280;51469;52.150;4.682;2023-04-25T05:06:30;101511.84;;;11.98
64947;BMP280;51469;52.150;4.682;2023-04-25T05:08:56;101515.13;;;12.07
64947;BMP280;51469;52.150;4.682;2023-04-25T05:11:23;101520.31;;;12.12
64947;BMP280;51469;52.150;4.682;2023-04-25T05:13:50;101531.06;;;12.20
64947;BMP280;51469;52.150;4.682;2023-04-25T05:16:16;101522.31;;;12.15
64947;BMP280;51469;52.150;4.682;2023-04-25T05:18:41;101538.16;;;12.21
64947;BMP280;51469;52.150;4.682;2023-04-25T05:21:06;101540.59;;;12.26
64947;BMP280;51469;52.150;4.682;2023-04-25T05:23:32;101544.13;;;12.27
64947;BMP280;51469;52.150;4.682;2023-04-25T05:25:58;101540.59;;;12.26
64947;BMP280;51469;52.150;4.682;2023-04-25T05:28:23;101554.81;;;12.32
64947;BMP280;51469;52.150;4.682;2023-04-25T05:30:49;101555.59;;;12.29
64947;BMP280;51469;52.150;4.682;2023-04-25T05:33:14;101556.84;;;12.35
64947;BMP280;51469;52.150;4.682;2023-04-25T05:35:40;101559.72;;;12.42
64947;BMP280;51469;52.150;4.682;2023-04-25T05:38:06;101573.91;;;12.44
64947;BMP280;51469;52.150;4.682;2023-04-25T05:40:31;101566.09;;;12.49
64947;BMP280;51469;52.150;4.682;2023-04-25T05:42:57;101560.53;;;12.46
64947;BMP280;51469;52.150;4.682;2023-04-25T05:45:22;101571.03;;;12.63
64947;BMP280;51469;52.150;4.682;2023-04-25T05:47:48;101574.72;;;12.74
64947;BMP280;51469;52.150;4.682;2023-04-25T05:50:13;101582.66;;;12.79
64947;BMP280;51469;52.150;4.682;2023-04-25T05:52:39;101588.91;;;12.76
64947;BMP280;51469;52.150;4.682;2023-04-25T05:55:04;101574.81;;;12.51
64947;BMP280;51469;52.150;4.682;2023-04-25T05:57:30;101599.53;;;12.25
64947;BMP280;51469;52.150;4.682;2023-04-25T05:59:55;101599.44;;;11.96
64947;BMP280;51469;52.150;4.682;2023-04-25T06:02:21;101592.66;;;11.71
64947;BMP280;51469;52.150;4.682;2023-04-25T06:04:49;101589.00;;;11.63
64947;BMP280;51469;52.150;4.682;2023-04-25T06:07:14;101608.72;;;11.69
64947;BMP280;51469;52.150;4.682;2023-04-25T06:09:39;101610.13;;;11.59
64947;BMP280;51469;52.150;4.682;2023-04-25T06:12:06;101614.94;;;11.66
64947;BMP280;51469;52.150;4.682;2023-04-25T06:14:32;101612.25;;;11.69
64947;BMP280;51469;52.150;4.682;2023-04-25T06:16:57;101605.69;;;11.74
64947;BMP280;51469;52.150;4.682;2023-04-25T06:19:23;101610.72;;;11.91
64947;BMP280;51469;52.150;4.682;2023-04-25T06:21:48;101606.00;;;11.91
64947;BMP280;51469;52.150;4.682;2023-04-25T06:24:13;101617.34;;;12.09
64947;BMP280;51469;52.150;4.682;2023-04-25T06:26:39;101624.03;;;12.11
64947;BMP280;51469;52.150;4.682;2023-04-25T06:29:04;101625.72;;;12.16
64947;BMP280;51469;52.150;4.682;2023-04-25T06:31:29;101621.50;;;12.22
64947;BMP280;51469;52.150;4.682;2023-04-25T06:33:57;101625.88;;;12.26
64947;BMP280;51469;52.150;4.682;2023-04-25T06:36:22;101628.63;;;12.26
64947;BMP280;51469;52.150;4.682;2023-04-25T06:38:53;101631.00;;;12.24
64947;BMP280;51469;52.150;4.682;2023-04-25T06:41:19;101641.53;;;12.45
64947;BMP280;51469;52.150;4.682;2023-04-25T06:43:45;101637.22;;;12.70
64947;BMP280;51469;52.150;4.682;2023-04-25T06:46:10;101642.25;;;12.90
64947;BMP280;51469;52.150;4.682;2023-04-25T06:48:36;101641.00;;;13.14
64947;BMP280;51469;52.150;4.682;2023-04-25T06:51:01;101643.63;;;13.33
64947;BMP280;51469;52.150;4.682;2023-04-25T06:53:26;101644.88;;;13.39
64947;BMP280;51469;52.150;4.682;2023-04-25T06:55:52;101634.72;;;13.43
64947;BMP280;51469;52.150;4.682;2023-04-25T06:58:17;101639.03;;;13.44
64947;BMP280;51469;52.150;4.682;2023-04-25T07:00:43;101651.31;;;13.20
64947;BMP280;51469;52.150;4.682;2023-04-25T07:03:08;101648.81;;;13.38
64947;BMP280;51469;52.150;4.682;2023-04-25T07:05:34;101648.41;;;13.36
64947;BMP280;51469;52.150;4.682;2023-04-25T07:08:00;101652.97;;;12.99
64947;BMP280;51469;52.150;4.682;2023-04-25T07:10:25;101651.28;;;13.17
64947;BMP280;51469;52.150;4.682;2023-04-25T07:12:50;101646.66;;;13.24
64947;BMP280;51469;52.150;4.682;2023-04-25T07:15:16;101655.66;;;13.51
64947;BMP280;51469;52.150;4.682;2023-04-25T07:17:41;101657.13;;;13.45
64947;BMP280;51469;52.150;4.682;2023-04-25T07:20:07;101657.31;;;13.92
64947;BMP280;51469;52.150;4.682;2023-04-25T07:22:34;101663.59;;;13.89
64947;BMP280;51469;52.150;4.682;2023-04-25T07:24:59;101662.47;;;13.31
64947;BMP280;51469;52.150;4.682;2023-04-25T07:27:25;101660.72;;;13.82
64947;BMP280;51469;52.150;4.682;2023-04-25T07:29:50;101663.09;;;14.20
64947;BMP280;51469;52.150;4.682;2023-04-25T07:32:15;101673.13;;;14.42
64947;BMP280;51469;52.150;4.682;2023-04-25T07:34:41;101662.06;;;14.42
64947;BMP280;51469;52.150;4.682;2023-04-25T07:37:06;101665.38;;;14.58
64947;BMP280;51469;52.150;4.682;2023-04-25T07:39:32;101667.06;;;14.73
64947;BMP280;51469;52.150;4.682;2023-04-25T07:41:57;101663.25;;;14.95
64947;BMP280;51469;52.150;4.682;2023-04-25T07:44:27;101671.50;;;14.85
64947;BMP280;51469;52.150;4.682;2023-04-25T07:46:52;101677.19;;;14.55
64947;BMP280;51469;52.150;4.682;2023-04-25T07:49:17;101666.34;;;14.83
64947;BMP280;51469;52.150;4.682;2023-04-25T07:51:43;101675.41;;;14.83
64947;BMP280;51469;52.150;4.682;2023-04-25T07:54:09;101666.38;;;14.90
64947;BMP280;51469;52.150;4.682;2023-04-25T07:56:34;101670.47;;;15.14
64947;BMP280;51469;52.150;4.682;2023-04-25T07:59:00;101680.47;;;15.39
64947;BMP280;51469;52.150;4.682;2023-04-25T08:04:00;101676.16;;;15.52
64947;BMP280;51469;52.150;4.682;2023-04-25T08:06:26;101678.13;;;14.73
64947;BMP280;51469;52.150;4.682;2023-04-25T08:08:52;101697.38;;;15.24
64947;BMP280;51469;52.150;4.682;2023-04-25T08:11:17;101686.44;;;15.55
64947;BMP280;51469;52.150;4.682;2023-04-25T08:13:43;101700.72;;;15.71
64947;BMP280;51469;52.150;4.682;2023-04-25T08:16:08;101698.00;;;16.06
64947;BMP280;51469;52.150;4.682;2023-04-25T08:18:33;101705.56;;;16.30
64947;BMP280;51469;52.150;4.682;2023-04-25T08:20:59;101706.72;;;16.92
64947;BMP280;51469;52.150;4.682;2023-04-25T08:23:24;101714.94;;;17.20
64947;BMP280;51469;52.150;4.682;2023-04-25T08:25:50;101713.69;;;17.28
64947;BMP280;51469;52.150;4.682;2023-04-25T08:28:16;101720.47;;;17.20
64947;BMP280;51469;52.150;4.682;2023-04-25T08:30:41;101735.91;;;17.14
64947;BMP280;51469;52.150;4.682;2023-04-25T08:33:06;101741.03;;;17.33
64947;BMP280;51469;52.150;4.682;2023-04-25T08:35:33;101741.91;;;17.02
64947;BMP280;51469;52.150;4.682;2023-04-25T08:37:58;101744.69;;;16.88
64947;BMP280;51469;52.150;4.682;2023-04-25T08:40:26;101755.41;;;16.34
64947;BMP280;51469;52.150;4.682;2023-04-25T08:42:54;101760.06;;;15.84
64947;BMP280;51469;52.150;4.682;2023-04-25T08:45:20;101759.94;;;15.56
64947;BMP280;51469;52.150;4.682;2023-04-25T08:47:47;101769.13;;;15.03
64947;BMP280;51469;52.150;4.682;2023-04-25T08:50:14;101786.59;;;14.67
64947;BMP280;51469;52.150;4.682;2023-04-25T08:52:43;101783.91;;;14.77
64947;BMP280;51469;52.150;4.682;2023-04-25T08:55:10;101793.38;;;14.76
64947;BMP280;51469;52.150;4.682;2023-04-25T08:57:36;101793.59;;;15.04
64947;BMP280;51469;52.150;4.682;2023-04-25T09:00:02;101817.38;;;14.32
64947;BMP280;51469;52.150;4.682;2023-04-25T09:02:29;101819.72;;;14.30
64947;BMP280;51469;52.150;4.682;2023-04-25T09:04:55;101825.59;;;13.92
64947;BMP280;51469;52.150;4.682;2023-04-25T09:07:21;101831.03;;;14.51
64947;BMP280;51469;52.150;4.682;2023-04-25T09:09:47;101849.69;;;13.69
64947;BMP280;51469;52.150;4.682;2023-04-25T09:12:12;101856.47;;;13.75
64947;BMP280;51469;52.150;4.682;2023-04-25T09:14:38;101862.53;;;13.84
64947;BMP280;51469;52.150;4.682;2023-04-25T09:17:04;101873.66;;;12.94
64947;BMP280;51469;52.150;4.682;2023-04-25T09:19:34;101870.59;;;12.99
64947;BMP280;51469;52.150;4.682;2023-04-25T09:22:02;101867.91;;;12.80
64947;BMP280;51469;52.150;4.682;2023-04-25T09:27:03;101863.56;;;12.60
64947;BMP280;51469;52.150;4.682;2023-04-25T09:29:33;101869.13;;;12.82
64947;BMP280;51469;52.150;4.682;2023-04-25T09:34:46;101865.78;;;13.15
64947;BMP280;51469;52.150;4.682;2023-04-25T09:37:23;101865.38;;;13.39
64947;BMP280;51469;52.150;4.682;2023-04-25T09:39:59;101868.03;;;13.32
64947;BMP280;51469;52.150;4.682;2023-04-25T09:42:27;101872.69;;;13.28
64947;BMP280;51469;52.150;4.682;2023-04-25T09:44:55;101863.69;;;13.57
64947;BMP280;51469;52.150;4.682;2023-04-25T09:47:23;101859.44;;;13.89
64947;BMP280;51469;52.150;4.682;2023-04-25T09:49:49;101864.03;;;14.11
64947;BMP280;51469;52.150;4.682;2023-04-25T09:52:16;101870.56;;;14.29
64947;BMP280;51469;52.150;4.682;2023-04-25T09:54:43;101870.22;;;14.34
64947;BMP280;51469;52.150;4.682;2023-04-25T09:57:14;101871.84;;;14.35
64947;BMP280;51469;52.150;4.682;2023-04-25T09:59:46;101873.56;;;13.84
64947;BMP280;51469;52.150;4.682;2023-04-25T10:02:15;101869.75;;;13.92
64947;BMP280;51469;52.150;4.682;2023-04-25T10:04:41;101856.63;;;14.15
64947;BMP280;51469;52.150;4.682;2023-04-25T10:07:08;101853.31;;;13.47
64947;BMP280;51469;52.150;4.682;2023-04-25T10:09:37;101864.19;;;13.14
64947;BMP280;51469;52.150;4.682;2023-04-25T10:12:04;101848.16;;;14.34
64947;BMP280;51469;52.150;4.682;2023-04-25T10:14:31;101866.94;;;14.98
64947;BMP280;51469;52.150;4.682;2023-04-25T10:17:00;101861.91;;;15.61
64947;BMP280;51469;52.150;4.682;2023-04-25T10:19:26;101861.28;;;15.92
64947;BMP280;51469;52.150;4.682;2023-04-25T10:22:03;101864.13;;;16.06
64947;BMP280;51469;52.150;4.682;2023-04-25T10:24:29;101854.09;;;15.77
64947;BMP280;51469;52.150;4.682;2023-04-25T10:26:56;101861.09;;;16.60
64947;BMP280;51469;52.150;4.682;2023-04-25T10:29:25;101871.00;;;16.92
64947;BMP280;51469;52.150;4.682;2023-04-25T10:31:51;101886.06;;;16.81
64947;BMP280;51469;52.150;4.682;2023-04-25T10:34:17;101884.03;;;16.36
64947;BMP280;51469;52.150;4.682;2023-04-25T10:36:43;101886.41;;;16.41
64947;BMP280;51469;52.150;4.682;2023-04-25T10:39:22;101890.66;;;16.14
64947;BMP280;51469;52.150;4.682;2023-04-25T10:41:55;101902.59;;;15.10
64947;BMP280;51469;52.150;4.682;2023-04-25T10:44:21;101892.25;;;15.00
64947;BMP280;51469;52.150;4.682;2023-04-25T10:46:46;101894.75;;;14.72
64947;BMP280;51469;52.150;4.682;2023-04-25T10:49:34;101895.25;;;14.81
64947;BMP280;51469;52.150;4.682;2023-04-25T10:55:02;101887.63;;;15.11
64947;BMP280;51469;52.150;4.682;2023-04-25T10:57:39;101884.06;;;15.61
64947;BMP280;51469;52.150;4.682;2023-04-25T11:02:40;101889.13;;;15.52
64947;BMP280;51469;52.150;4.682;2023-04-25T11:05:06;101884.28;;;16.03
64947;BMP280;51469;52.150;4.682;2023-04-25T11:07:50;101882.28;;;16.00
64947;BMP280;51469;52.150;4.682;2023-04-25T11:10:17;101872.41;;;15.99
64947;BMP280;51469;52.150;4.682;2023-04-25T11:12:43;101875.59;;;16.08
64947;BMP280;51469;52.150;4.682;2023-04-25T11:15:09;101878.81;;;16.21
64947;BMP280;51469;52.150;4.682;2023-04-25T11:17:35;101886.03;;;16.46
64947;BMP280;51469;52.150;4.682;2023-04-25T11:20:01;101878.16;;;16.69
64947;BMP280;51469;52.150;4.682;2023-04-25T11:22:27;101893.22;;;16.96
64947;BMP280;51469;52.150;4.682;2023-04-25T11:24:53;101882.09;;;17.24
64947;BMP280;51469;52.150;4.682;2023-04-25T11:27:18;101892.38;;;17.27
64947;BMP280;51469;52.150;4.682;2023-04-25T11:29:44;101889.66;;;16.92
64947;BMP280;51469;52.150;4.682;2023-04-25T11:32:09;101887.63;;;16.89
64947;BMP280;51469;52.150;4.682;2023-04-25T11:34:35;101898.75;;;16.96
64947;BMP280;51469;52.150;4.682;2023-04-25T11:37:01;101894.00;;;17.00
64947;BMP280;51469;52.150;4.682;2023-04-25T11:39:27;101899.94;;;16.99
64947;BMP280;51469;52.150;4.682;2023-04-25T11:41:53;101889.63;;;17.31
64947;BMP280;51469;52.150;4.682;2023-04-25T11:44:20;101891.63;;;17.20
64947;BMP280;51469;52.150;4.682;2023-04-25T11:46:46;101894.38;;;17.44
64947;BMP280;51469;52.150;4.682;2023-04-25T11:49:13;101898.69;;;17.59
64947;BMP280;51469;52.150;4.682;2023-04-25T11:51:43;101901.72;;;17.96
64947;BMP280;51469;52.150;4.682;2023-04-25T11:54:09;101900.00;;;18.30
64947;BMP280;51469;52.150;4.682;2023-04-25T11:56:34;101906.25;;;18.44
64947;BMP280;51469;52.150;4.682;2023-04-25T11:59:02;101919.03;;;18.38
64947;BMP280;51469;52.150;4.682;2023-04-25T12:03:53;101918.81;;;17.91
64947;BMP280;51469;52.150;4.682;2023-04-25T12:06:18;101916.09;;;17.77
64947;BMP280;51469;52.150;4.682;2023-04-25T12:09:04;101932.00;;;17.59
64947;BMP280;51469;52.150;4.682;2023-04-25T12:11:31;101935.16;;;17.47
64947;BMP280;51469;52.150;4.682;2023-04-25T12:14:02;101934.81;;;17.38
64947;BMP280;51469;52.150;4.682;2023-04-25T12:16:28;101925.97;;;17.81
64947;BMP280;51469;52.150;4.682;2023-04-25T12:18:55;101925.53;;;18.04
64947;BMP280;51469;52.150;4.682;2023-04-25T12:21:22;101934.41;;;18.50
64947;BMP280;51469;52.150;4.682;2023-04-25T12:23:47;101924.66;;;18.21
64947;BMP280;51469;52.150;4.682;2023-04-25T12:26:12;101923.16;;;17.99
64947;BMP280;51469;52.150;4.682;2023-04-25T12:28:38;101928.59;;;18.27
64947;BMP280;51469;52.150;4.682;2023-04-25T12:31:07;101932.44;;;18.47
64947;BMP280;51469;52.150;4.682;2023-04-25T12:33:36;101941.31;;;18.21
64947;BMP280;51469;52.150;4.682;2023-04-25T12:36:04;101948.84;;;18.24
64947;BMP280;51469;52.150;4.682;2023-04-25T12:38:39;101950.53;;;18.76
64947;BMP280;51469;52.150;4.682;2023-04-25T12:41:06;101940.88;;;18.91
64947;BMP280;51469;52.150;4.682;2023-04-25T12:43:31;101953.81;;;18.60
64947;BMP280;51469;52.150;4.682;2023-04-25T12:45:57;101951.59;;;18.34
64947;BMP280;51469;52.150;4.682;2023-04-25T12:48:23;101964.06;;;18.67
64947;BMP280;51469;52.150;4.682;2023-04-25T12:50:49;101962.47;;;18.73
64947;BMP280;51469;52.150;4.682;2023-04-25T12:53:17;101962.63;;;18.45
64947;BMP280;51469;52.150;4.682;2023-04-25T12:55:42;101959.22;;;18.09
64947;BMP280;51469;52.150;4.682;2023-04-25T12:58:08;101963.22;;;18.77
64947;BMP280;51469;52.150;4.682;2023-04-25T13:00:33;101957.72;;;18.70
64947;BMP280;51469;52.150;4.682;2023-04-25T13:03:01;101958.88;;;17.90
64947;BMP280;51469;52.150;4.682;2023-04-25T13:05:27;101980.34;;;17.58
64947;BMP280;51469;52.150;4.682;2023-04-25T13:07:52;102004.00;;;16.65
64947;BMP280;51469;52.150;4.682;2023-04-25T13:10:18;102007.78;;;16.18
64947;BMP280;51469;52.150;4.682;2023-04-25T13:12:43;102003.47;;;15.70
64947;BMP280;51469;52.150;4.682;2023-04-25T13:15:09;102007.03;;;15.27
64947;BMP280;51469;52.150;4.682;2023-04-25T13:17:37;102001.03;;;15.18
64947;BMP280;51469;52.150;4.682;2023-04-25T13:20:04;102008.84;;;15.52
64947;BMP280;51469;52.150;4.682;2023-04-25T13:22:31;102006.66;;;15.76
64947;BMP280;51469;52.150;4.682;2023-04-25T13:24:56;101997.19;;;15.73
64947;BMP280;51469;52.150;4.682;2023-04-25T13:27:22;101990.91;;;14.30
64947;BMP280;51469;52.150;4.682;2023-04-25T13:29:47;101999.69;;;15.02
64947;BMP280;51469;52.150;4.682;2023-04-25T13:32:12;101972.78;;;14.98
64947;BMP280;51469;52.150;4.682;2023-04-25T13:34:38;101991.06;;;15.10
64947;BMP280;51469;52.150;4.682;2023-04-25T13:37:03;101995.25;;;15.30
64947;BMP280;51469;52.150;4.682;2023-04-25T13:39:28;101989.81;;;15.41
64947;BMP280;51469;52.150;4.682;2023-04-25T13:41:54;101985.72;;;15.24
64947;BMP280;51469;52.150;4.682;2023-04-25T13:44:19;101991.78;;;15.94
64947;BMP280;51469;52.150;4.682;2023-04-25T13:46:44;101993.88;;;16.11
64947;BMP280;51469;52.150;4.682;2023-04-25T13:49:11;101999.81;;;16.17
64947;BMP280;51469;52.150;4.682;2023-04-25T13:51:37;101993.66;;;16.51
64947;BMP280;51469;52.150;4.682;2023-04-25T13:54:02;101989.63;;;16.35
64947;BMP280;51469;52.150;4.682;2023-04-25T13:56:27;101992.78;;;16.33
64947;BMP280;51469;52.150;4.682;2023-04-25T13:58:53;101993.66;;;16.44
64947;BMP280;51469;52.150;4.682;2023-04-25T14:01:18;101990.25;;;16.82
64947;BMP280;51469;52.150;4.682;2023-04-25T14:03:44;102001.72;;;17.12
64947;BMP280;51469;52.150;4.682;2023-04-25T14:06:10;101989.09;;;17.18
64947;BMP280;51469;52.150;4.682;2023-04-25T14:08:37;101991.03;;;17.07